sensor_id;sensor_type;location;lat;lon;timestamp;temperature;humidity
24148;DHT22;12309;51.450;-2.624;2022-09-29T00:01:15;9.10;99.90
24148;DHT22;12309;51.450;-2.624;2022-09-29T00:03:41;9.20;99.90
24148;DHT22;12309;51.450;-2.624;2022-09-29T00:06:15;9.10;99.90
24148;DHT22;12309;51.450;-2.624;2022-09-29T00:08:41;8.80;99.90
24148;DHT22;12309;51.450;-2.624;2022-09-29T00:11:12;8.70;99.90
24148;DHT22;12309;51.450;-2.624;2022-09-29T00:13:38;8.80;99.90
24148;DHT22;12309;51.450;-2.624;2022-09-29T00:16:04;8.80;99.90
24148;DHT22;12309;51.450;-2.624;2022-09-29T00:18:32;8.80;99.90
24148;DHT22;12309;51.450;-2.624;2022-09-29T00:21:06;9.00;99.90
24148;DHT22;12309;51.450;-2.624;2022-09-29T00:23:33;9.00;99.90
24148;DHT22;12309;51.450;-2.624;2022-09-29T00:26:03;8.90;99.90
24148;DHT22;12309;51.450;-2.624;2022-09-29T00:28:30;9.20;99.90
24148;DHT22;12309;51.450;-2.624;2022-09-29T00:30:57;9.10;99.90
24148;DHT22;12309;51.450;-2.624;2022-09-29T00:36:01;9.10;99.90
24148;DHT22;12309;51.450;-2.624;2022-09-29T00:38:28;9.20;99.90
24148;DHT22;12309;51.450;-2.624;2022-09-29T00:40:54;9.10;99.90
24148;DHT22;12309;51.450;-2.624;2022-09-29T00:52:02;9.30;99.90
24148;DHT22;12309;51.450;-2.624;2022-09-29T00:54:36;9.10;99.90
24148;DHT22;12309;51.450;-2.624;2022-09-29T00:57:06;9.40;99.90
24148;DHT22;12309;51.450;-2.624;2022-09-29T01:02:22;9.50;99.90
24148;DHT22;12309;51.450;-2.624;2022-09-29T01:04:49;9.60;99.90
24148;DHT22;12309;51.450;-2.624;2022-09-29T01:07:17;9.60;99.90
24148;DHT22;12309;51.450;-2.624;2022-09-29T01:09:44;9.70;99.90
24148;DHT22;12309;51.450;-2.624;2022-09-29T01:14:37;9.70;99.90
24148;DHT22;12309;51.450;-2.624;2022-09-29T01:17:04;10.10;99.90
24148;DHT22;12309;51.450;-2.624;2022-09-29T01:35:25;9.80;99.90
24148;DHT22;12309;51.450;-2.624;2022-09-29T01:37:46;9.90;99.90
24148;DHT22;12309;51.450;-2.624;2022-09-29T01:40:18;10.10;99.90
24148;DHT22;12309;51.450;-2.624;2022-09-29T01:43:00;10.10;99.90
24148;DHT22;12309;51.450;-2.624;2022-09-29T01:45:32;10.10;99.90
24148;DHT22;12309;51.450;-2.624;2022-09-29T01:48:35;10.00;99.90
24148;DHT22;12309;51.450;-2.624;2022-09-29T01:50:57;10.10;99.90
24148;DHT22;12309;51.450;-2.624;2022-09-29T01:53:36;10.00;99.90
24148;DHT22;12309;51.450;-2.624;2022-09-29T01:56:06;10.10;99.90
24148;DHT22;12309;51.450;-2.624;2022-09-29T01:58:46;10.00;99.90
24148;DHT22;12309;51.450;-2.624;2022-09-29T02:01:16;10.10;99.90
24148;DHT22;12309;51.450;-2.624;2022-09-29T02:04:08;10.10;99.90
24148;DHT22;12309;51.450;-2.624;2022-09-29T02:06:48;10.10;99.90
24148;DHT22;12309;51.450;-2.624;2022-09-29T02:09:22;10.10;99.90
24148;DHT22;12309;51.450;-2.624;2022-09-29T02:11:49;10.10;99.90
24148;DHT22;12309;51.450;-2.624;2022-09-29T02:14:24;10.00;99.90
24148;DHT22;12309;51.450;-2.624;2022-09-29T02:16:58;10.00;99.90
24148;DHT22;12309;51.450;-2.624;2022-09-29T02:19:30;9.90;99.90
24148;DHT22;12309;51.450;-2.624;2022-09-29T02:21:58;9.90;99.90
24148;DHT22;12309;51.450;-2.624;2022-09-29T02:24:24;9.90;99.90
24148;DHT22;12309;51.450;-2.624;2022-09-29T02:26:50;9.90;99.90
24148;DHT22;12309;51.450;-2.624;2022-09-29T02:29:16;9.70;99.90
24148;DHT22;12309;51.450;-2.624;2022-09-29T02:31:43;10.00;99.90
24148;DHT22;12309;51.450;-2.624;2022-09-29T02:34:12;9.90;99.90
24148;DHT22;12309;51.450;-2.624;2022-09-29T02:42:37;10.00;99.90
24148;DHT22;12309;51.450;-2.624;2022-09-29T02:59:39;10.00;99.90
24148;DHT22;12309;51.450;-2.624;2022-09-29T03:02:06;10.00;99.90
24148;DHT22;12309;51.450;-2.624;2022-09-29T03:04:32;10.00;99.90
24148;DHT22;12309;51.450;-2.624;2022-09-29T03:06:58;9.80;99.90
24148;DHT22;12309;51.450;-2.624;2022-09-29T03:09:23;10.10;99.90
24148;DHT22;12309;51.450;-2.624;2022-09-29T03:11:49;9.80;99.90
24148;DHT22;12309;51.450;-2.624;2022-09-29T03:17:16;9.90;99.90
24148;DHT22;12309;51.450;-2.624;2022-09-29T03:19:41;9.90;99.90
24148;DHT22;12309;51.450;-2.624;2022-09-29T03:22:07;9.80;99.90
24148;DHT22;12309;51.450;-2.624;2022-09-29T03:24:33;10.00;99.90
24148;DHT22;12309;51.450;-2.624;2022-09-29T03:29:24;10.30;99.90
24148;DHT22;12309;51.450;-2.624;2022-09-29T03:34:16;10.20;99.90
24148;DHT22;12309;51.450;-2.624;2022-09-29T03:36:42;9.80;99.90
24148;DHT22;12309;51.450;-2.624;2022-09-29T03:39:07;10.00;99.90
24148;DHT22;12309;51.450;-2.624;2022-09-29T03:41:33;9.80;99.90
24148;DHT22;12309;51.450;-2.624;2022-09-29T03:43:59;10.10;99.90
24148;DHT22;12309;51.450;-2.624;2022-09-29T03:46:25;10.30;99.90
24148;DHT22;12309;51.450;-2.624;2022-09-29T03:48:50;9.90;99.90
24148;DHT22;12309;51.450;-2.624;2022-09-29T03:51:16;10.00;99.90
24148;DHT22;12309;51.450;-2.624;2022-09-29T03:56:07;9.80;99.90
24148;DHT22;12309;51.450;-2.624;2022-09-29T03:58:33;10.00;99.90
24148;DHT22;12309;51.450;-2.624;2022-09-29T04:00:59;9.90;99.90
24148;DHT22;12309;51.450;-2.624;2022-09-29T04:05:52;10.20;99.90
24148;DHT22;12309;51.450;-2.624;2022-09-29T04:10:45;10.00;99.90
24148;DHT22;12309;51.450;-2.624;2022-09-29T04:13:12;9.90;99.90
24148;DHT22;12309;51.450;-2.624;2022-09-29T04:15:38;10.00;99.90
24148;DHT22;12309;51.450;-2.624;2022-09-29T04:18:03;9.70;99.90
24148;DHT22;12309;51.450;-2.624;2022-09-29T04:20:30;10.00;99.90
24148;DHT22;12309;51.450;-2.624;2022-09-29T04:25:22;9.90;99.90
24148;DHT22;12309;51.450;-2.624;2022-09-29T04:30:13;10.10;99.90
24148;DHT22;12309;51.450;-2.624;2022-09-29T04:32:40;10.00;99.90
24148;DHT22;12309;51.450;-2.624;2022-09-29T04:35:06;9.70;99.90
24148;DHT22;12309;51.450;-2.624;2022-09-29T04:39:57;10.10;99.90
24148;DHT22;12309;51.450;-2.624;2022-09-29T04:44:49;9.80;99.90
24148;DHT22;12309;51.450;-2.624;2022-09-29T04:47:15;10.10;99.90
24148;DHT22;12309;51.450;-2.624;2022-09-29T04:49:41;9.60;99.90
24148;DHT22;12309;51.450;-2.624;2022-09-29T04:52:08;10.20;99.90
24148;DHT22;12309;51.450;-2.624;2022-09-29T04:54:34;8.60;99.90
24148;DHT22;12309;51.450;-2.624;2022-09-29T04:57:00;10.10;99.90
24148;DHT22;12309;51.450;-2.624;2022-09-29T04:59:27;10.00;99.90
24148;DHT22;12309;51.450;-2.624;2022-09-29T05:01:52;10.30;99.90
24148;DHT22;12309;51.450;-2.624;2022-09-29T05:04:18;10.00;99.90
24148;DHT22;12309;51.450;-2.624;2022-09-29T05:06:44;10.20;99.90
24148;DHT22;12309;51.450;-2.624;2022-09-29T05:09:10;10.10;99.90
24148;DHT22;12309;51.450;-2.624;2022-09-29T05:16:29;10.00;99.90
24148;DHT22;12309;51.450;-2.624;2022-09-29T05:18:54;10.10;99.90
24148;DHT22;12309;51.450;-2.624;2022-09-29T05:23:46;10.40;99.90
24148;DHT22;12309;51.450;-2.624;2022-09-29T05:28:41;10.30;99.90
24148;DHT22;12309;51.450;-2.624;2022-09-29T05:31:08;10.70;99.90
24148;DHT22;12309;51.450;-2.624;2022-09-29T05:33:35;10.40;99.90
24148;DHT22;12309;51.450;-2.624;2022-09-29T05:36:05;10.20;99.90
24148;DHT22;12309;51.450;-2.624;2022-09-29T05:38:32;10.30;99.90
24148;DHT22;12309;51.450;-2.624;2022-09-29T05:40:57;10.40;99.90
24148;DHT22;12309;51.450;-2.624;2022-09-29T05:43:23;10.70;99.90
24148;DHT22;12309;51.450;-2.624;2022-09-29T05:48:16;10.40;99.90
24148;DHT22;12309;51.450;-2.624;2022-09-29T05:50:42;10.60;99.90
24148;DHT22;12309;51.450;-2.624;2022-09-29T05:53:09;10.70;99.90
24148;DHT22;12309;51.450;-2.624;2022-09-29T05:55:36;10.40;99.90
24148;DHT22;12309;51.450;-2.624;2022-09-29T06:00:28;10.70;99.90
24148;DHT22;12309;51.450;-2.624;2022-09-29T06:03:00;10.10;99.90
24148;DHT22;12309;51.450;-2.624;2022-09-29T06:05:27;10.60;99.90
24148;DHT22;12309;51.450;-2.624;2022-09-29T06:15:11;10.50;99.90
24148;DHT22;12309;51.450;-2.624;2022-09-29T06:20:04;10.80;99.90
24148;DHT22;12309;51.450;-2.624;2022-09-29T06:22:31;10.50;99.90
24148;DHT22;12309;51.450;-2.624;2022-09-29T06:24:57;11.00;99.90
24148;DHT22;12309;51.450;-2.624;2022-09-29T06:27:23;10.60;99.90
24148;DHT22;12309;51.450;-2.624;2022-09-29T06:37:26;10.40;99.90
24148;DHT22;12309;51.450;-2.624;2022-09-29T06:40:05;10.60;99.90
24148;DHT22;12309;51.450;-2.624;2022-09-29T06:42:32;11.10;99.90
24148;DHT22;12309;51.450;-2.624;2022-09-29T06:47:24;10.60;99.90
24148;DHT22;12309;51.450;-2.624;2022-09-29T06:49:50;10.90;99.90
24148;DHT22;12309;51.450;-2.624;2022-09-29T06:52:16;10.70;99.90
24148;DHT22;12309;51.450;-2.624;2022-09-29T06:54:42;11.10;99.90
24148;DHT22;12309;51.450;-2.624;2022-09-29T06:57:08;10.60;99.90
24148;DHT22;12309;51.450;-2.624;2022-09-29T06:59:34;10.70;99.90
24148;DHT22;12309;51.450;-2.624;2022-09-29T07:04:26;10.80;99.90
24148;DHT22;12309;51.450;-2.624;2022-09-29T07:06:51;10.90;99.90
24148;DHT22;12309;51.450;-2.624;2022-09-29T07:09:17;10.70;99.90
24148;DHT22;12309;51.450;-2.624;2022-09-29T07:11:44;10.90;99.90
24148;DHT22;12309;51.450;-2.624;2022-09-29T07:14:15;11.10;99.90
24148;DHT22;12309;51.450;-2.624;2022-09-29T07:16:42;11.10;99.90
24148;DHT22;12309;51.450;-2.624;2022-09-29T07:19:08;11.20;99.90
24148;DHT22;12309;51.450;-2.624;2022-09-29T07:21:34;11.20;99.90
24148;DHT22;12309;51.450;-2.624;2022-09-29T07:24:00;11.50;99.90
24148;DHT22;12309;51.450;-2.624;2022-09-29T07:26:26;11.30;99.90
24148;DHT22;12309;51.450;-2.624;2022-09-29T07:31:19;11.50;99.90
24148;DHT22;12309;51.450;-2.624;2022-09-29T07:33:47;11.60;99.90
24148;DHT22;12309;51.450;-2.624;2022-09-29T07:36:14;11.60;99.90
24148;DHT22;12309;51.450;-2.624;2022-09-29T07:38:41;11.70;99.90
24148;DHT22;12309;51.450;-2.624;2022-09-29T07:41:08;11.60;99.90
24148;DHT22;12309;51.450;-2.624;2022-09-29T07:43:35;11.60;99.90
24148;DHT22;12309;51.450;-2.624;2022-09-29T07:48:29;11.30;99.90
24148;DHT22;12309;51.450;-2.624;2022-09-29T07:51:03;11.50;99.90
24148;DHT22;12309;51.450;-2.624;2022-09-29T07:53:29;13.30;99.90
24148;DHT22;12309;51.450;-2.624;2022-09-29T08:00:53;11.60;99.90
24148;DHT22;12309;51.450;-2.624;2022-09-29T08:05:45;12.00;99.90
24148;DHT22;12309;51.450;-2.624;2022-09-29T08:10:37;11.80;99.90
24148;DHT22;12309;51.450;-2.624;2022-09-29T08:20:22;11.90;99.90
24148;DHT22;12309;51.450;-2.624;2022-09-29T08:22:48;11.60;99.90
24148;DHT22;12309;51.450;-2.624;2022-09-29T08:25:14;11.90;99.90
24148;DHT22;12309;51.450;-2.624;2022-09-29T08:27:41;12.20;99.90
24148;DHT22;12309;51.450;-2.624;2022-09-29T08:30:07;12.10;99.90
24148;DHT22;12309;51.450;-2.624;2022-09-29T08:32:34;12.10;99.90
24148;DHT22;12309;51.450;-2.624;2022-09-29T08:37:27;12.00;99.90
24148;DHT22;12309;51.450;-2.624;2022-09-29T08:39:52;12.30;99.90
24148;DHT22;12309;51.450;-2.624;2022-09-29T08:42:45;12.20;99.90
24148;DHT22;12309;51.450;-2.624;2022-09-29T08:45:20;12.20;99.90
24148;DHT22;12309;51.450;-2.624;2022-09-29T08:47:50;12.20;99.90
24148;DHT22;12309;51.450;-2.624;2022-09-29T08:50:30;12.20;99.90
24148;DHT22;12309;51.450;-2.624;2022-09-29T08:53:06;12.10;99.90
24148;DHT22;12309;51.450;-2.624;2022-09-29T08:55:46;12.10;99.90
24148;DHT22;12309;51.450;-2.624;2022-09-29T08:58:14;11.80;99.90
24148;DHT22;12309;51.450;-2.624;2022-09-29T09:01:05;12.20;99.90
24148;DHT22;12309;51.450;-2.624;2022-09-29T09:03:38;12.10;99.90
24148;DHT22;12309;51.450;-2.624;2022-09-29T09:11:52;12.10;99.90
24148;DHT22;12309;51.450;-2.624;2022-09-29T09:27:46;13.00;99.90
24148;DHT22;12309;51.450;-2.624;2022-09-29T09:30:16;13.10;99.90
24148;DHT22;12309;51.450;-2.624;2022-09-29T09:32:52;13.40;99.90
24148;DHT22;12309;51.450;-2.624;2022-09-29T09:38:04;13.90;99.90
24148;DHT22;12309;51.450;-2.624;2022-09-29T09:40:40;13.70;99.90
24148;DHT22;12309;51.450;-2.624;2022-09-29T09:43:13;13.80;99.90
24148;DHT22;12309;51.450;-2.624;2022-09-29T09:45:50;13.70;99.90
24148;DHT22;12309;51.450;-2.624;2022-09-29T09:48:35;13.60;99.90
24148;DHT22;12309;51.450;-2.624;2022-09-29T09:51:31;13.50;99.90
24148;DHT22;12309;51.450;-2.624;2022-09-29T09:54:03;13.20;99.90
24148;DHT22;12309;51.450;-2.624;2022-09-29T09:59:33;13.20;99.90
24148;DHT22;12309;51.450;-2.624;2022-09-29T10:02:02;13.40;99.90
24148;DHT22;12309;51.450;-2.624;2022-09-29T10:04:27;13.30;99.90
24148;DHT22;12309;51.450;-2.624;2022-09-29T10:06:54;13.40;99.90
24148;DHT22;12309;51.450;-2.624;2022-09-29T10:11:47;13.20;99.90
24148;DHT22;12309;51.450;-2.624;2022-09-29T10:14:13;13.30;99.90
24148;DHT22;12309;51.450;-2.624;2022-09-29T10:16:47;13.20;99.90
24148;DHT22;12309;51.450;-2.624;2022-09-29T10:19:21;13.30;99.90
24148;DHT22;12309;51.450;-2.624;2022-09-29T10:21:47;13.40;99.90
24148;DHT22;12309;51.450;-2.624;2022-09-29T10:24:22;13.60;99.90
24148;DHT22;12309;51.450;-2.624;2022-09-29T10:26:50;13.50;99.90
24148;DHT22;12309;51.450;-2.624;2022-09-29T10:29:38;13.90;99.90
24148;DHT22;12309;51.450;-2.624;2022-09-29T10:34:34;14.10;99.90
24148;DHT22;12309;51.450;-2.624;2022-09-29T10:37:03;14.40;99.90
24148;DHT22;12309;51.450;-2.624;2022-09-29T10:39:45;14.20;99.90
24148;DHT22;12309;51.450;-2.624;2022-09-29T10:42:21;14.60;99.90
24148;DHT22;12309;51.450;-2.624;2022-09-29T10:45:01;14.80;99.90
24148;DHT22;12309;51.450;-2.624;2022-09-29T10:47:35;14.90;99.90
24148;DHT22;12309;51.450;-2.624;2022-09-29T10:50:23;15.70;99.90
24148;DHT22;12309;51.450;-2.624;2022-09-29T10:52:56;15.40;99.90
24148;DHT22;12309;51.450;-2.624;2022-09-29T10:55:25;15.40;99.90
24148;DHT22;12309;51.450;-2.624;2022-09-29T10:57:54;15.20;99.90
24148;DHT22;12309;51.450;-2.624;2022-09-29T11:00:32;15.30;99.90
24148;DHT22;12309;51.450;-2.624;2022-09-29T11:03:18;15.20;99.90
24148;DHT22;12309;51.450;-2.624;2022-09-29T11:08:16;15.50;99.90
24148;DHT22;12309;51.450;-2.624;2022-09-29T11:10:45;15.70;99.90
24148;DHT22;12309;51.450;-2.624;2022-09-29T11:15:44;16.80;99.90
24148;DHT22;12309;51.450;-2.624;2022-09-29T11:18:34;16.70;99.90
24148;DHT22;12309;51.450;-2.624;2022-09-29T11:42:34;17.30;99.90
24148;DHT22;12309;51.450;-2.624;2022-09-29T11:45:04;16.80;99.90
24148;DHT22;12309;51.450;-2.624;2022-09-29T11:53:05;15.50;99.90
24148;DHT22;12309;51.450;-2.624;2022-09-29T12:06:55;15.00;99.90
24148;DHT22;12309;51.450;-2.624;2022-09-29T12:12:28;15.20;99.90
24148;DHT22;12309;51.450;-2.624;2022-09-29T12:17:35;15.30;99.90
24148;DHT22;12309;51.450;-2.624;2022-09-29T12:20:22;15.50;99.90
24148;DHT22;12309;51.450;-2.624;2022-09-29T12:22:50;15.70;99.90
24148;DHT22;12309;51.450;-2.624;2022-09-29T12:25:20;15.90;99.90
24148;DHT22;12309;51.450;-2.624;2022-09-29T12:27:52;16.20;99.90
24148;DHT22;12309;51.450;-2.624;2022-09-29T12:30:44;15.80;99.90
24148;DHT22;12309;51.450;-2.624;2022-09-29T12:38:50;15.50;99.90
24148;DHT22;12309;51.450;-2.624;2022-09-29T12:41:24;15.50;99.90
24148;DHT22;12309;51.450;-2.624;2022-09-29T12:43:59;14.90;99.90
24148;DHT22;12309;51.450;-2.624;2022-09-29T12:46:37;15.20;99.90
24148;DHT22;12309;51.450;-2.624;2022-09-29T12:51:49;15.20;99.90
24148;DHT22;12309;51.450;-2.624;2022-09-29T12:54:56;15.30;99.90
24148;DHT22;12309;51.450;-2.624;2022-09-29T12:57:24;15.30;99.90
24148;DHT22;12309;51.450;-2.624;2022-09-29T13:00:00;15.30;99.90
24148;DHT22;12309;51.450;-2.624;2022-09-29T13:16:22;15.30;99.90
24148;DHT22;12309;51.450;-2.624;2022-09-29T13:27:54;15.40;99.90
24148;DHT22;12309;51.450;-2.624;2022-09-29T13:30:33;15.50;99.90
24148;DHT22;12309;51.450;-2.624;2022-09-29T13:33:14;15.60;99.90
24148;DHT22;12309;51.450;-2.624;2022-09-29T13:35:45;15.60;99.90
24148;DHT22;12309;51.450;-2.624;2022-09-29T13:38:25;15.50;99.90
24148;DHT22;12309;51.450;-2.624;2022-09-29T13:41:55;15.30;99.90
24148;DHT22;12309;51.450;-2.624;2022-09-29T13:54:39;16.10;99.90
24148;DHT22;12309;51.450;-2.624;2022-09-29T13:59:43;17.00;99.90
24148;DHT22;12309;51.450;-2.624;2022-09-29T14:02:37;17.00;99.90
24148;DHT22;12309;51.450;-2.624;2022-09-29T14:05:05;17.60;99.90
24148;DHT22;12309;51.450;-2.624;2022-09-29T14:16:17;20.40;99.90
24148;DHT22;12309;51.450;-2.624;2022-09-29T14:29:59;23.80;99.90
24148;DHT22;12309;51.450;-2.624;2022-09-29T14:32:56;23.90;99.90
24148;DHT22;12309;51.450;-2.624;2022-09-29T14:35:34;24.90;99.90
24148;DHT22;12309;51.450;-2.624;2022-09-29T14:38:16;25.10;99.90
24148;DHT22;12309;51.450;-2.624;2022-09-29T14:43:34;25.30;99.90
24148;DHT22;12309;51.450;-2.624;2022-09-29T14:57:42;22.10;99.90
24148;DHT22;12309;51.450;-2.624;2022-09-29T15:00:18;21.20;99.90
24148;DHT22;12309;51.450;-2.624;2022-09-29T15:02:50;22.10;99.90
24148;DHT22;12309;51.450;-2.624;2022-09-29T15:05:28;23.30;99.90
24148;DHT22;12309;51.450;-2.624;2022-09-29T15:07:55;23.90;99.90
24148;DHT22;12309;51.450;-2.624;2022-09-29T15:15:42;24.80;99.90
24148;DHT22;12309;51.450;-2.624;2022-09-29T15:21:31;24.60;99.90
24148;DHT22;12309;51.450;-2.624;2022-09-29T15:24:12;24.70;99.90
24148;DHT22;12309;51.450;-2.624;2022-09-29T15:26:41;24.30;99.90
24148;DHT22;12309;51.450;-2.624;2022-09-29T15:29:13;24.50;99.90
24148;DHT22;12309;51.450;-2.624;2022-09-29T15:31:43;23.90;99.90
24148;DHT22;12309;51.450;-2.624;2022-09-29T15:34:16;24.10;99.90
24148;DHT22;12309;51.450;-2.624;2022-09-29T15:36:47;23.70;99.90
24148;DHT22;12309;51.450;-2.624;2022-09-29T15:42:01;22.90;99.90
24148;DHT22;12309;51.450;-2.624;2022-09-29T15:44:28;22.80;99.90
24148;DHT22;12309;51.450;-2.624;2022-09-29T15:46:57;23.50;99.90
24148;DHT22;12309;51.450;-2.624;2022-09-29T15:49:26;23.30;99.90
24148;DHT22;12309;51.450;-2.624;2022-09-29T15:52:03;23.10;99.90
24148;DHT22;12309;51.450;-2.624;2022-09-29T15:54:35;22.30;99.90
24148;DHT22;12309;51.450;-2.624;2022-09-29T15:57:04;21.20;99.90
24148;DHT22;12309;51.450;-2.624;2022-09-29T15:59:51;21.30;99.90
24148;DHT22;12309;51.450;-2.624;2022-09-29T16:04:50;21.20;99.90
24148;DHT22;12309;51.450;-2.624;2022-09-29T16:07:29;21.30;99.90
24148;DHT22;12309;51.450;-2.624;2022-09-29T16:10:06;20.60;99.90
24148;DHT22;12309;51.450;-2.624;2022-09-29T16:12:39;20.40;99.90
24148;DHT22;12309;51.450;-2.624;2022-09-29T16:15:36;19.90;99.90
24148;DHT22;12309;51.450;-2.624;2022-09-29T16:18:15;19.70;99.90
24148;DHT22;12309;51.450;-2.624;2022-09-29T16:20:43;19.30;99.90
24148;DHT22;12309;51.450;-2.624;2022-09-29T16:23:33;19.40;99.90
24148;DHT22;12309;51.450;-2.624;2022-09-29T16:28:36;19.10;99.90
24148;DHT22;12309;51.450;-2.624;2022-09-29T16:33:35;20.50;99.90
24148;DHT22;12309;51.450;-2.624;2022-09-29T16:36:17;20.80;99.90
24148;DHT22;12309;51.450;-2.624;2022-09-29T16:38:45;20.70;99.90
24148;DHT22;12309;51.450;-2.624;2022-09-29T16:41:27;20.90;99.90
24148;DHT22;12309;51.450;-2.624;2022-09-29T16:44:16;20.90;99.90
24148;DHT22;12309;51.450;-2.624;2022-09-29T16:46:49;21.00;99.90
24148;DHT22;12309;51.450;-2.624;2022-09-29T16:49:27;20.90;99.90
24148;DHT22;12309;51.450;-2.624;2022-09-29T16:52:19;20.60;99.90
24148;DHT22;12309;51.450;-2.624;2022-09-29T16:54:45;20.20;99.90
24148;DHT22;12309;51.450;-2.624;2022-09-29T16:57:27;19.40;99.90
24148;DHT22;12309;51.450;-2.624;2022-09-29T17:00:05;18.90;99.90
24148;DHT22;12309;51.450;-2.624;2022-09-29T17:02:32;18.20;99.90
24148;DHT22;12309;51.450;-2.624;2022-09-29T17:04:57;17.90;99.90
24148;DHT22;12309;51.450;-2.624;2022-09-29T17:07:25;17.80;99.90
24148;DHT22;12309;51.450;-2.624;2022-09-29T17:09:54;17.70;99.90
24148;DHT22;12309;51.450;-2.624;2022-09-29T17:12:21;17.30;99.90
24148;DHT22;12309;51.450;-2.624;2022-09-29T17:17:23;17.00;99.90
24148;DHT22;12309;51.450;-2.624;2022-09-29T17:19:49;16.70;99.90
24148;DHT22;12309;51.450;-2.624;2022-09-29T17:27:16;16.20;99.90
24148;DHT22;12309;51.450;-2.624;2022-09-29T17:32:26;15.80;99.90
24148;DHT22;12309;51.450;-2.624;2022-09-29T17:34:52;16.00;99.90
24148;DHT22;12309;51.450;-2.624;2022-09-29T17:39:44;15.50;99.90
24148;DHT22;12309;51.450;-2.624;2022-09-29T17:42:10;15.50;99.90
24148;DHT22;12309;51.450;-2.624;2022-09-29T17:44:36;15.30;99.90
24148;DHT22;12309;51.450;-2.624;2022-09-29T17:47:10;15.30;99.90
24148;DHT22;12309;51.450;-2.624;2022-09-29T17:49:37;15.00;99.90
24148;DHT22;12309;51.450;-2.624;2022-09-29T17:52:06;15.10;99.90
24148;DHT22;12309;51.450;-2.624;2022-09-29T17:57:00;14.90;99.90
24148;DHT22;12309;51.450;-2.624;2022-09-29T17:59:26;14.90;99.90
24148;DHT22;12309;51.450;-2.624;2022-09-29T18:01:51;14.90;99.90
24148;DHT22;12309;51.450;-2.624;2022-09-29T18:09:15;14.70;99.90
24148;DHT22;12309;51.450;-2.624;2022-09-29T18:16:33;14.30;99.90
24148;DHT22;12309;51.450;-2.624;2022-09-29T18:21:25;14.20;99.90
24148;DHT22;12309;51.450;-2.624;2022-09-29T18:26:17;14.00;99.90
24148;DHT22;12309;51.450;-2.624;2022-09-29T18:28:43;14.00;99.90
24148;DHT22;12309;51.450;-2.624;2022-09-29T18:31:26;14.10;99.90
24148;DHT22;12309;51.450;-2.624;2022-09-29T18:33:53;13.80;99.90
24148;DHT22;12309;51.450;-2.624;2022-09-29T18:36:19;13.50;99.90
24148;DHT22;12309;51.450;-2.624;2022-09-29T18:38:45;13.50;99.90
24148;DHT22;12309;51.450;-2.624;2022-09-29T18:41:16;13.40;99.90
24148;DHT22;12309;51.450;-2.624;2022-09-29T18:43:44;13.40;99.90
24148;DHT22;12309;51.450;-2.624;2022-09-29T18:46:10;13.40;99.90
24148;DHT22;12309;51.450;-2.624;2022-09-29T18:53:29;13.20;99.90
24148;DHT22;12309;51.450;-2.624;2022-09-29T18:55:59;13.00;99.90
24148;DHT22;12309;51.450;-2.624;2022-09-29T19:00:53;13.10;99.90
24148;DHT22;12309;51.450;-2.624;2022-09-29T19:03:21;12.90;99.90
24148;DHT22;12309;51.450;-2.624;2022-09-29T19:05:48;13.00;99.90
24148;DHT22;12309;51.450;-2.624;2022-09-29T19:08:16;12.90;99.90
24148;DHT22;12309;51.450;-2.624;2022-09-29T19:10:56;12.60;99.90
24148;DHT22;12309;51.450;-2.624;2022-09-29T19:13:25;12.70;99.90
24148;DHT22;12309;51.450;-2.624;2022-09-29T19:15:55;12.70;99.90
24148;DHT22;12309;51.450;-2.624;2022-09-29T19:18:22;12.60;99.90
24148;DHT22;12309;51.450;-2.624;2022-09-29T19:20:56;12.50;99.90
24148;DHT22;12309;51.450;-2.624;2022-09-29T19:23:24;12.60;99.90
24148;DHT22;12309;51.450;-2.624;2022-09-29T19:25:51;12.60;99.90
24148;DHT22;12309;51.450;-2.624;2022-09-29T19:28:17;12.20;99.90
24148;DHT22;12309;51.450;-2.624;2022-09-29T19:30:44;12.20;99.90
24148;DHT22;12309;51.450;-2.624;2022-09-29T19:33:13;12.20;99.90
24148;DHT22;12309;51.450;-2.624;2022-09-29T19:35:47;12.20;99.90
24148;DHT22;12309;51.450;-2.624;2022-09-29T19:38:15;12.20;99.90
24148;DHT22;12309;51.450;-2.624;2022-09-29T19:40:43;12.20;99.90
24148;DHT22;12309;51.450;-2.624;2022-09-29T19:43:08;12.10;99.90
24148;DHT22;12309;51.450;-2.624;2022-09-29T19:45:36;12.20;99.90
24148;DHT22;12309;51.450;-2.624;2022-09-29T19:48:06;11.80;99.90
24148;DHT22;12309;51.450;-2.624;2022-09-29T20:00:53;11.80;99.90
24148;DHT22;12309;51.450;-2.624;2022-09-29T20:03:19;11.90;99.90
24148;DHT22;12309;51.450;-2.624;2022-09-29T20:05:45;11.80;99.90
24148;DHT22;12309;51.450;-2.624;2022-09-29T20:10:36;11.70;99.90
24148;DHT22;12309;51.450;-2.624;2022-09-29T20:17:54;12.00;99.90
24148;DHT22;12309;51.450;-2.624;2022-09-29T20:25:14;11.70;99.90
24148;DHT22;12309;51.450;-2.624;2022-09-29T20:30:07;11.90;99.90
24148;DHT22;12309;51.450;-2.624;2022-09-29T20:32:33;11.80;99.90
24148;DHT22;12309;51.450;-2.624;2022-09-29T20:34:59;11.50;99.90
24148;DHT22;12309;51.450;-2.624;2022-09-29T20:42:20;11.50;99.90
24148;DHT22;12309;51.450;-2.624;2022-09-29T20:47:19;11.50;99.90
24148;DHT22;12309;51.450;-2.624;2022-09-29T21:01:56;11.50;99.90
24148;DHT22;12309;51.450;-2.624;2022-09-29T21:06:50;11.30;99.90
24148;DHT22;12309;51.450;-2.624;2022-09-29T21:09:21;11.30;99.90
24148;DHT22;12309;51.450;-2.624;2022-09-29T21:11:49;11.10;99.90
24148;DHT22;12309;51.450;-2.624;2022-09-29T21:14:17;11.30;99.90
24148;DHT22;12309;51.450;-2.624;2022-09-29T21:16:45;11.20;99.90
24148;DHT22;12309;51.450;-2.624;2022-09-29T21:19:13;11.30;99.90
24148;DHT22;12309;51.450;-2.624;2022-09-29T21:21:39;11.20;99.90
24148;DHT22;12309;51.450;-2.624;2022-09-29T21:24:06;11.10;99.90
24148;DHT22;12309;51.450;-2.624;2022-09-29T21:28:59;11.10;99.90
24148;DHT22;12309;51.450;-2.624;2022-09-29T21:31:28;11.10;99.90
24148;DHT22;12309;51.450;-2.624;2022-09-29T21:33:57;11.20;99.90
24148;DHT22;12309;51.450;-2.624;2022-09-29T21:36:24;11.20;99.90
24148;DHT22;12309;51.450;-2.624;2022-09-29T21:41:22;11.10;99.90
24148;DHT22;12309;51.450;-2.624;2022-09-29T21:43:49;11.00;99.90
24148;DHT22;12309;51.450;-2.624;2022-09-29T21:46:18;10.90;99.90
24148;DHT22;12309;51.450;-2.624;2022-09-29T21:48:44;11.20;99.90
24148;DHT22;12309;51.450;-2.624;2022-09-29T21:51:13;10.90;99.90
24148;DHT22;12309;51.450;-2.624;2022-09-29T21:53:40;10.90;99.90
24148;DHT22;12309;51.450;-2.624;2022-09-29T21:58:36;10.70;99.90
24148;DHT22;12309;51.450;-2.624;2022-09-29T22:01:04;10.80;99.90
24148;DHT22;12309;51.450;-2.624;2022-09-29T22:03:35;10.60;99.90
24148;DHT22;12309;51.450;-2.624;2022-09-29T22:06:02;10.90;99.90
24148;DHT22;12309;51.450;-2.624;2022-09-29T22:08:29;10.70;99.90
24148;DHT22;12309;51.450;-2.624;2022-09-29T22:10:56;10.80;99.90
24148;DHT22;12309;51.450;-2.624;2022-09-29T22:13:23;10.70;99.90
24148;DHT22;12309;51.450;-2.624;2022-09-29T22:15:59;10.70;99.90
24148;DHT22;12309;51.450;-2.624;2022-09-29T22:20:59;11.00;99.90
24148;DHT22;12309;51.450;-2.624;2022-09-29T22:23:26;10.60;99.90
24148;DHT22;12309;51.450;-2.624;2022-09-29T22:25:52;10.50;99.90